Time;durP1;ratioP1;P1;durP2;ratioP2;P2;SDS_P1;SDS_P2;PMS_P1;PMS_P2;Temp;Humidity;BMP_temperature;BMP_pressure;BME280_temperature;BME280_humidity;BME280_pressure;Samples;Min_cycle;Max_cycle;Signal;HPM_P1;HPM_P2
2022/03/19 00:02:21;;;;;;;7.40;4.07;;;;;;;19.28;30.42;104178.56;7312272;19;129442;-52
2022/03/19 00:04:49;;;;;;;12.02;3.63;;;;;;;19.26;30.25;104177.91;7313262;19;129255;-52
2022/03/19 00:07:16;;;;;;;7.35;3.85;;;;;;;19.23;29.94;104173.53;7313088;19;129690;-52
2022/03/19 00:09:43;;;;;;;8.13;3.50;;;;;;;19.22;30.16;104171.78;7312064;19;129643;-50
2022/03/19 00:12:14;;;;;;;10.20;3.70;;;;;;;19.20;29.92;104171.94;7312151;19;130236;-50
2022/03/19 00:14:41;;;;;;;9.20;3.30;;;;;;;19.20;30.06;104171.09;7310594;19;129672;-53
2022/03/19 00:17:10;;;;;;;8.60;3.92;;;;;;;19.17;30.32;104176.97;7313269;19;129332;-53
2022/03/19 00:19:40;;;;;;;10.30;3.30;;;;;;;19.16;30.12;104175.25;7309834;19;129477;-52
2022/03/19 00:22:08;;;;;;;8.13;3.92;;;;;;;19.15;30.34;104174.34;7309163;19;129549;-50
2022/03/19 00:24:35;;;;;;;7.70;3.88;;;;;;;19.14;30.38;104172.63;7310709;19;129836;-53
2022/03/19 00:27:02;;;;;;;9.55;3.38;;;;;;;19.13;30.41;104172.78;7311950;19;129735;-54
2022/03/19 00:29:29;;;;;;;10.25;3.88;;;;;;;19.11;30.16;104166.53;7312006;19;129707;-55
2022/03/19 00:31:56;;;;;;;7.18;3.08;;;;;;;19.10;30.28;104174.03;7311041;19;129688;-54
2022/03/19 00:34:22;;;;;;;11.02;3.50;;;;;;;19.07;30.28;104172.47;7310713;19;128862;-53
2022/03/19 00:36:49;;;;;;;8.05;3.60;;;;;;;19.07;30.17;104166.03;7312544;19;129118;-53
2022/03/19 00:39:16;;;;;;;7.43;3.70;;;;;;;19.06;30.33;104181.81;7310608;19;129356;-54
2022/03/19 00:41:43;;;;;;;9.93;3.13;;;;;;;19.06;30.24;104175.38;7309973;19;129673;-54
2022/03/19 00:44:10;;;;;;;5.35;2.92;;;;;;;19.04;30.04;104172.78;7311933;19;128778;-52
2022/03/19 00:46:37;;;;;;;6.70;3.25;;;;;;;19.03;30.25;104175.72;7312626;19;128973;-50
2022/03/19 00:49:03;;;;;;;7.03;3.40;;;;;;;19.01;30.10;104181.44;7311043;19;130287;-54
2022/03/19 00:51:32;;;;;;;6.28;2.95;;;;;;;19.00;30.20;104176.06;7310965;19;130927;-52
2022/03/19 00:53:59;;;;;;;9.77;3.80;;;;;;;18.99;30.17;104163.25;7310502;19;129258;-52
2022/03/19 00:56:25;;;;;;;6.40;3.58;;;;;;;18.99;30.21;104168.78;7311724;19;129859;-51
2022/03/19 00:58:52;;;;;;;7.55;3.30;;;;;;;18.98;29.95;104165.13;7312023;19;130474;-50
2022/03/19 01:01:19;;;;;;;6.35;2.63;;;;;;;18.97;30.25;104171.72;7309278;19;130563;-53
2022/03/19 01:03:46;;;;;;;6.00;2.70;;;;;;;18.96;30.27;104169.13;7311999;19;129431;-52
2022/03/19 01:06:13;;;;;;;7.38;3.22;;;;;;;18.94;30.18;104155.44;7311412;19;129229;-50
2022/03/19 01:08:40;;;;;;;6.60;3.05;;;;;;;18.93;30.00;104153.69;7308861;19;129621;-52
2022/03/19 01:11:06;;;;;;;6.50;3.55;;;;;;;18.93;30.11;104148.16;7310447;19;129606;-54
2022/03/19 01:13:33;;;;;;;9.23;3.13;;;;;;;;;;7309834;19;130170;-52
2022/03/19 01:16:01;;;;;;;4.32;2.70;;;;;;;18.89;30.34;104142.03;7308538;19;129825;-53
2022/03/19 01:18:28;;;;;;;5.53;3.33;;;;;;;18.88;29.99;104143.09;7310077;19;130677;-54
2022/03/19 01:20:56;;;;;;;7.45;2.80;;;;;;;18.87;29.96;104138.59;7308244;19;130312;-50
2022/03/19 01:23:23;;;;;;;6.88;2.97;;;;;;;18.86;30.05;104141.53;7311394;19;129436;-52
2022/03/19 01:25:50;;;;;;;5.30;2.65;;;;;;;18.86;30.09;104135.97;7309563;19;129209;-55
2022/03/19 01:28:16;;;;;;;7.05;2.97;;;;;;;18.84;30.17;104129.72;7309199;19;129638;-53
2022/03/19 01:30:43;;;;;;;4.80;2.60;;;;;;;18.83;30.04;104134.41;7310517;19;129631;-51
2022/03/19 01:33:10;;;;;;;6.53;3.00;;;;;;;18.81;30.36;104133.72;7311125;19;129392;-54
2022/03/19 01:35:37;;;;;;;4.72;2.70;;;;;;;18.82;30.05;104121.56;7308052;19;129759;-53
2022/03/19 01:38:05;;;;;;;7.38;2.90;;;;;;;18.82;30.18;104123.50;7310646;19;131445;-54
2022/03/19 01:40:31;;;;;;;5.55;2.58;;;;;;;18.81;30.14;104128.16;7309154;19;131491;-54
2022/03/19 01:43:00;;;;;;;4.72;2.63;;;;;;;18.80;30.04;104125.56;7311212;19;131252;-54
2022/03/19 01:45:27;;;;;;;7.90;2.90;;;;;;;18.79;30.43;104126.59;7311179;19;128944;-52
2022/03/19 01:47:54;;;;;;;8.52;2.97;;;;;;;18.77;30.24;104123.97;7310493;19;129614;-54
2022/03/19 01:50:22;;;;;;;4.40;2.40;;;;;;;18.76;30.13;104119.50;7309089;19;129855;-52
2022/03/19 01:52:50;;;;;;;6.38;2.20;;;;;;;18.76;30.04;104122.28;7311305;19;129375;-52
2022/03/19 01:55:22;;;;;;;6.38;2.75;;;;;;;18.74;30.01;104130.75;7307191;19;129132;-53
2022/03/19 01:57:50;;;;;;;4.95;2.60;;;;;;;18.75;30.51;104123.31;7309876;19;129274;-53
2022/03/19 02:00:22;;;;;;;7.20;2.78;;;;;;;18.74;30.44;104124.34;7310460;19;129863;-54
2022/03/19 02:02:51;;;;;;;5.40;2.97;;;;;;;18.72;30.19;104113.41;7309886;19;129194;-52
2022/03/19 02:05:20;;;;;;;4.75;2.15;;;;;;;18.72;30.40;104118.94;7310490;19;128975;-54
2022/03/19 02:07:48;;;;;;;4.60;2.33;;;;;;;18.71;30.03;104119.13;7310181;19;129614;-49
2022/03/19 02:10:16;;;;;;;6.60;2.63;;;;;;;18.71;29.96;104121.91;7308745;19;130841;-53
2022/03/19 02:12:44;;;;;;;8.05;2.22;;;;;;;18.69;30.45;104124.84;7309385;19;129965;-51
2022/03/19 02:15:14;;;;;;;6.95;2.70;;;;;;;18.68;30.27;104112.03;7307902;19;129257;-53
2022/03/19 02:17:41;;;;;;;4.85;2.40;;;;;;;18.68;30.05;104120.34;7307120;19;131568;-51
2022/03/19 02:20:09;;;;;;;6.07;2.40;;;;;;;18.68;30.12;104116.69;7306042;19;129746;-52
2022/03/19 02:22:36;;;;;;;7.55;2.58;;;;;;;18.67;30.06;104115.81;7316432;19;129187;-52
2022/03/19 02:27:49;;;;;;;5.30;2.72;;;;;;;18.63;30.41;104100.56;7314047;19;130470;-50
2022/03/19 02:30:16;;;;;;;6.15;3.10;;;;;;;18.62;30.35;104107.13;7315191;19;129951;-54
2022/03/19 02:32:47;;;;;;;5.78;3.08;;;;;;;18.61;30.37;104105.41;7316433;19;128825;-50
2022/03/19 02:35:14;;;;;;;4.97;2.28;;;;;;;18.60;29.89;104099.00;7314953;19;129341;-56
2022/03/19 02:37:43;;;;;;;7.00;2.67;;;;;;;18.60;29.92;104101.78;7316395;19;129978;-52
2022/03/19 02:40:13;;;;;;;6.60;2.50;;;;;;;18.58;30.21;104095.53;7315894;19;129670;-53
2022/03/19 02:42:42;;;;;;;6.15;2.78;;;;;;;18.57;29.86;104093.78;7315721;19;128920;-51
2022/03/19 02:45:09;;;;;;;4.30;2.35;;;;;;;18.55;29.95;104095.00;7316215;19;129560;-53
2022/03/19 02:47:56;;;;;;;5.53;2.50;;;;;;;18.55;30.15;104086.69;7315529;19;130799;-55
2022/03/19 02:50:25;;;;;;;6.87;2.50;;;;;;;18.55;30.22;104083.91;7315031;19;129534;-51
2022/03/19 02:52:52;;;;;;;6.03;2.88;;;;;;;18.53;30.15;104078.50;7315024;19;129485;-51
2022/03/19 02:55:19;;;;;;;5.25;2.67;;;;;;;18.52;29.98;104075.91;7315007;19;129394;-56
2022/03/19 02:57:46;;;;;;;3.75;2.30;;;;;;;18.52;29.81;104073.13;7313561;19;129619;-52
2022/03/19 03:00:13;;;;;;;5.50;2.30;;;;;;;18.52;29.92;104075.91;7313409;19;129516;-51
2022/03/19 03:02:40;;;;;;;5.30;2.63;;;;;;;18.50;30.11;104069.66;7313859;19;129462;-52
2022/03/19 03:05:10;;;;;;;3.95;2.40;;;;;;;18.50;30.18;104065.00;7314991;19;129072;-53
2022/03/19 03:07:36;;;;;;;4.97;2.28;;;;;;;18.49;29.82;104079.00;7314631;19;130132;-49
2022/03/19 03:10:04;;;;;;;7.25;2.40;;;;;;;18.49;30.14;104067.94;7314898;19;131478;-54
2022/03/19 03:12:31;;;;;;;5.45;2.42;;;;;;;18.48;29.73;104067.06;7315243;19;129468;-54
2022/03/19 03:14:58;;;;;;;7.03;2.60;;;;;;;18.48;29.98;104068.97;7312978;19;130143;-55
2022/03/19 03:17:25;;;;;;;8.25;2.78;;;;;;;18.45;30.21;104071.06;7315567;19;129638;-54
2022/03/19 03:19:52;;;;;;;3.83;2.10;;;;;;;18.46;29.91;104070.00;7313039;19;129550;-54
2022/03/19 03:22:19;;;;;;;5.13;2.45;;;;;;;18.44;29.92;104066.56;7315189;19;129613;-54
2022/03/19 03:24:46;;;;;;;5.68;2.50;;;;;;;18.44;30.20;104069.31;7314952;19;129133;-51
2022/03/19 03:27:12;;;;;;;5.50;2.78;;;;;;;18.43;29.87;104064.81;7314975;19;130100;-54
2022/03/19 03:29:39;;;;;;;5.85;2.50;;;;;;;18.43;30.12;104066.69;7314576;19;132393;-54
2022/03/19 03:32:06;;;;;;;4.93;2.13;;;;;;;18.41;30.02;104064.09;7314549;19;130285;-52
2022/03/19 03:34:33;;;;;;;6.78;2.22;;;;;;;18.41;30.20;104066.00;7313301;19;130741;-52
2022/03/19 03:37:00;;;;;;;6.85;2.55;;;;;;;18.39;29.83;104063.41;7313006;19;131621;-52
2022/03/19 03:39:27;;;;;;;4.53;2.30;;;;;;;18.39;30.09;104074.50;7313072;19;129788;-53
2022/03/19 03:41:53;;;;;;;6.22;2.22;;;;;;;18.39;29.91;104068.06;7313846;19;128995;-52
2022/03/19 03:44:20;;;;;;;4.75;2.10;;;;;;;18.38;30.17;104072.72;7314164;19;128920;-53
2022/03/19 03:46:48;;;;;;;4.15;2.03;;;;;;;18.36;30.19;104074.78;7313504;19;129558;-56
2022/03/19 03:49:14;;;;;;;5.43;2.25;;;;;;;18.36;30.11;104071.16;7313690;19;129675;-53
2022/03/19 03:51:41;;;;;;;3.90;2.00;;;;;;;18.36;30.12;104071.16;7313771;19;130090;-54
2022/03/19 03:54:08;;;;;;;5.93;2.42;;;;;;;18.34;29.85;104060.22;7312458;19;129877;-54
2022/03/19 03:56:35;;;;;;;4.43;2.30;;;;;;;18.34;29.83;104060.22;7312822;19;131033;-53
2022/03/19 03:59:02;;;;;;;7.40;2.08;;;;;;;18.34;29.91;104065.75;7312855;19;129471;-51
2022/03/19 04:01:29;;;;;;;4.65;2.08;;;;;;;18.32;30.13;104062.31;7313112;19;129343;-54
2022/03/19 04:03:56;;;;;;;7.72;2.60;;;;;;;18.32;29.82;104062.31;7312700;19;129250;-52
2022/03/19 04:06:23;;;;;;;4.78;2.50;;;;;;;18.31;29.72;104066.13;7313469;19;130051;-52
2022/03/19 04:08:49;;;;;;;4.72;2.10;;;;;;;18.31;29.73;104063.34;7311147;19;130436;-51
2022/03/19 04:11:16;;;;;;;5.20;2.28;;;;;;;18.30;30.07;104062.47;7312031;19;129889;-49
2022/03/19 04:13:43;;;;;;;3.40;1.92;;;;;;;18.30;29.93;104058.84;7312553;19;129537;-50
2022/03/19 04:16:09;;;;;;;4.70;2.03;;;;;;;18.28;30.16;104059.00;7309387;19;129956;-52
2022/03/19 04:18:36;;;;;;;4.40;2.03;;;;;;;18.28;29.81;104058.13;7311842;19;129601;-56
2022/03/19 04:21:03;;;;;;;5.53;2.22;;;;;;;18.28;29.73;104060.91;7310634;19;129452;-53
2022/03/19 04:23:30;;;;;;;4.78;2.35;;;;;;;18.27;30.12;104061.94;7313655;19;129477;-50
2022/03/19 04:25:56;;;;;;;4.85;2.03;;;;;;;18.25;29.79;104061.22;7313017;19;129976;-53
2022/03/19 04:28:23;;;;;;;3.75;2.10;;;;;;;18.24;30.24;104057.59;7312561;19;129951;-50
2022/03/19 04:30:50;;;;;;;4.00;2.00;;;;;;;18.25;29.81;104052.91;7311985;19;128988;-50
2022/03/19 04:33:20;;;;;;;4.35;2.05;;;;;;;18.24;30.07;104056.72;7312886;19;128830;-54
2022/03/19 04:38:32;;;;;;;7.45;2.60;;;;;;;18.22;29.74;104047.69;7311241;19;129932;-55
2022/03/19 04:41:00;;;;;;;5.65;2.60;;;;;;;18.21;30.16;104048.75;7313208;19;129478;-50
2022/03/19 04:43:27;;;;;;;6.78;2.38;;;;;;;18.20;29.81;104050.66;7309901;19;130412;-52
2022/03/19 04:45:53;;;;;;;5.55;2.47;;;;;;;18.20;30.13;104053.41;7312087;19;129553;-53
2022/03/19 04:48:20;;;;;;;4.53;1.88;;;;;;;18.19;29.81;104042.53;7311802;19;129473;-54
2022/03/19 04:50:48;;;;;;;4.50;2.00;;;;;;;18.19;29.74;104039.75;7311144;19;128924;-54
2022/03/19 04:53:15;;;;;;;5.25;2.35;;;;;;;18.17;30.16;104041.81;7311715;19;129178;-55
2022/03/19 04:55:42;;;;;;;5.68;2.33;;;;;;;18.18;29.76;104049.09;7311154;19;133128;-53
2022/03/19 04:58:09;;;;;;;6.43;2.30;;;;;;;18.17;29.77;104033.50;7311741;19;129618;-54
2022/03/19 05:00:37;;;;;;;5.10;2.25;;;;;;;18.15;29.78;104040.06;7311680;19;129345;-54
2022/03/19 05:03:07;;;;;;;3.30;1.83;;;;;;;18.15;30.05;104040.06;7312040;19;130837;-53
2022/03/19 05:05:34;;;;;;;3.88;2.00;;;;;;;18.16;30.26;104040.94;7309742;19;129847;-56
2022/03/19 05:08:03;;;;;;;5.22;2.08;;;;;;;18.21;29.94;104043.22;7311233;19;130085;-52
2022/03/19 05:13:17;;;;;;;3.50;2.17;;;;;;;18.37;29.76;104043.25;7310714;19;128817;-52
2022/03/19 05:15:45;;;;;;;4.07;2.00;;;;;;;18.50;29.41;104047.47;7310627;19;130443;-54
2022/03/19 05:18:11;;;;;;;4.47;1.77;;;;;;;18.64;29.72;104044.06;7310076;19;129740;-52
2022/03/19 05:20:38;;;;;;;3.85;1.70;;;;;;;18.83;29.49;104044.78;7310079;19;129703;-50
2022/03/19 05:23:06;;;;;;;2.75;1.70;;;;;;;19.04;29.46;104039.59;7311064;19;128841;-53
2022/03/19 05:25:33;;;;;;;4.88;1.75;;;;;;;19.29;29.17;104044.28;7310772;19;129925;-56
2022/03/19 05:28:01;;;;;;;2.35;1.50;;;;;;;19.50;28.69;104040.97;7311174;19;129774;-55
2022/03/19 05:30:48;;;;;;;3.63;1.60;;;;;;;19.75;28.79;104046.47;7311089;19;129417;-49
2022/03/19 05:33:15;;;;;;;4.07;1.60;;;;;;;19.90;28.16;104046.59;7310696;19;128840;-53
2022/03/19 05:35:44;;;;;;;3.25;1.83;;;;;;;20.02;27.98;104047.97;7310215;19;130334;-49
2022/03/19 05:38:12;;;;;;;3.85;1.98;;;;;;;20.09;28.30;104048.09;7310430;19;129879;-52
2022/03/19 05:40:39;;;;;;;3.28;1.70;;;;;;;20.12;28.00;104054.16;7309639;19;130585;-51
2022/03/19 05:43:06;;;;;;;4.38;1.80;;;;;;;20.14;28.10;104048.44;7310559;19;130325;-51
2022/03/19 05:45:32;;;;;;;2.97;1.42;;;;;;;20.14;28.15;104051.22;7309055;19;131066;-54
2022/03/19 05:48:01;;;;;;;3.08;1.52;;;;;;;20.10;28.07;104049.84;7309808;19;131138;-53
2022/03/19 05:50:28;;;;;;;4.28;1.88;;;;;;;20.09;28.11;104048.09;7310354;19;128849;-50
2022/03/19 05:52:55;;;;;;;3.67;1.70;;;;;;;20.05;28.16;104052.31;7309712;19;128975;-53
2022/03/19 05:55:22;;;;;;;3.33;1.50;;;;;;;19.99;28.15;104054.75;7314389;19;130338;-52
2022/03/19 05:57:48;;;;;;;3.63;1.55;;;;;;;19.95;28.24;104049.72;7315896;19;130391;-51
2022/03/19 06:00:16;;;;;;;3.72;1.65;;;;;;;19.90;27.75;104052.16;7317187;19;128992;-53
2022/03/19 06:02:44;;;;;;;4.45;2.05;;;;;;;19.84;28.05;104057.38;7317836;19;129299;-49
2022/03/19 06:05:15;;;;;;;3.75;1.77;;;;;;;19.81;27.92;104056.88;7314486;19;129953;-52
2022/03/19 06:07:42;;;;;;;3.78;1.70;;;;;;;19.75;27.93;104054.81;7317281;19;130516;-53
2022/03/19 06:10:09;;;;;;;2.00;1.33;;;;;;;19.68;27.99;104049.09;7317507;19;129430;-53
2022/03/19 06:12:36;;;;;;;3.20;1.58;;;;;;;19.64;28.46;104056.03;7318331;19;129787;-50
2022/03/19 06:15:04;;;;;;;4.28;1.85;;;;;;;19.57;28.21;104053.09;7316252;19;130734;-51
2022/03/19 06:17:31;;;;;;;4.32;1.60;;;;;;;19.52;28.15;104067.50;7313593;19;130457;-53
2022/03/19 06:19:57;;;;;;;2.13;1.30;;;;;;;19.48;28.40;104074.47;7314423;19;130861;-52
2022/03/19 06:22:24;;;;;;;5.00;1.55;;;;;;;19.45;28.58;104071.16;7315787;19;129305;-52
2022/03/19 06:24:51;;;;;;;2.35;1.50;;;;;;;19.40;28.22;104070.84;7314910;19;129671;-51
2022/03/19 06:27:18;;;;;;;3.58;1.58;;;;;;;19.35;28.52;104066.66;7314563;19;130321;-52
2022/03/19 06:29:45;;;;;;;5.38;1.67;;;;;;;19.30;28.62;104069.13;7314813;19;129436;-51
2022/03/19 06:32:12;;;;;;;2.83;1.50;;;;;;;19.25;28.51;104079.00;7316182;19;129308;-51
2022/03/19 06:34:38;;;;;;;5.82;1.80;;;;;;;19.23;28.42;104065.28;7316150;19;129954;-52
2022/03/19 06:37:20;;;;;;;3.88;1.70;;;;;;;19.22;28.76;104064.44;7312710;19;131238;-53
2022/03/19 06:39:57;;;;;;;5.03;1.88;;;;;;;19.26;28.69;104070.50;7314428;19;129317;-52
2022/03/19 06:42:25;;;;;;;3.33;1.50;;;;;;;19.33;28.66;104071.53;7315254;19;129680;-52
2022/03/19 06:44:52;;;;;;;2.97;1.45;;;;;;;19.42;28.28;104071.53;7315831;19;131773;-55
2022/03/19 06:47:19;;;;;;;3.95;1.80;;;;;;;19.56;28.23;104068.06;7314885;19;130404;-51
2022/03/19 06:49:45;;;;;;;3.60;1.40;;;;;;;19.73;28.44;104071.66;7315571;19;130245;-50
2022/03/19 06:52:12;;;;;;;6.47;1.60;;;;;;;19.87;28.33;104071.97;7314338;19;130267;-50
2022/03/19 06:54:39;;;;;;;4.13;1.85;;;;;;;19.99;27.79;104074.22;7314841;19;131611;-54
2022/03/19 06:57:05;;;;;;;3.72;1.63;;;;;;;20.10;27.77;104066.53;7313599;19;129192;-50
2022/03/19 06:59:32;;;;;;;3.70;1.50;;;;;;;20.16;27.60;104071.38;7314487;19;129686;-54
2022/03/19 07:01:59;;;;;;;3.17;1.70;;;;;;;20.20;27.76;104067.16;7315102;19;129304;-55
2022/03/19 07:04:26;;;;;;;4.38;1.70;;;;;;;20.22;27.54;104075.34;7314766;19;129563;-55
2022/03/19 07:06:53;;;;;;;3.90;1.80;;;;;;;20.21;27.98;104071.69;7313816;19;130570;-51
2022/03/19 07:09:28;;;;;;;3.55;1.38;;;;;;;20.19;27.93;104075.69;7313990;19;129837;-53
2022/03/19 07:11:54;;;;;;;3.70;1.60;;;;;;;20.16;27.79;104065.81;7315034;19;129984;-65
2022/03/19 07:14:22;;;;;;;4.63;1.77;;;;;;;20.12;27.82;104070.84;7313901;19;129954;-65
2022/03/19 07:16:50;;;;;;;3.58;1.48;;;;;;;20.10;27.87;104072.09;7312848;19;129436;-62
2022/03/19 07:19:17;;;;;;;3.58;1.50;;;;;;;20.06;27.67;104059.63;7312159;19;129885;-66
2022/03/19 07:21:44;;;;;;;3.08;1.20;;;;;;;20.02;27.97;104063.78;7313124;19;129816;-64
2022/03/19 07:24:11;;;;;;;4.18;1.40;;;;;;;19.97;27.99;104067.06;7313001;19;130127;-66
2022/03/19 07:26:37;;;;;;;3.90;1.40;;;;;;;19.92;28.18;104064.84;7314124;19;129554;-67
2022/03/19 07:29:04;;;;;;;4.05;1.50;;;;;;;19.88;28.10;104062.59;7312296;19;129263;-63
2022/03/19 07:31:31;;;;;;;4.35;1.65;;;;;;;19.83;28.26;104066.75;7315477;19;129875;-69
2022/03/19 07:33:59;;;;;;;2.70;1.33;;;;;;;19.78;27.95;104057.22;7313778;19;131395;-67
2022/03/19 07:36:26;;;;;;;2.17;1.20;;;;;;;19.74;28.26;104053.06;7314009;19;129724;-69
2022/03/19 07:38:53;;;;;;;3.35;1.50;;;;;;;19.69;28.11;104054.47;7313741;19;130045;-69
2022/03/19 07:44:05;;;;;;;2.78;1.35;;;;;;;19.59;28.24;104045.47;7313927;19;131106;-68
2022/03/19 07:46:34;;;;;;;4.70;1.55;;;;;;;19.55;28.42;104051.53;7314230;19;132225;-63
2022/03/19 07:49:02;;;;;;;3.38;1.48;;;;;;;19.50;28.51;104041.84;7313880;19;129364;-50
2022/03/19 07:51:29;;;;;;;2.75;1.27;;;;;;;19.46;28.32;104040.47;7314260;19;129100;-52
2022/03/19 07:53:56;;;;;;;4.20;1.50;;;;;;;19.44;28.81;104038.91;7313018;19;131114;-51
2022/03/19 07:56:24;;;;;;;3.78;1.60;;;;;;;19.40;28.44;104043.06;7313124;19;130486;-55
2022/03/19 07:58:51;;;;;;;3.80;1.60;;;;;;;19.36;28.60;104040.63;7313499;19;129252;-52
2022/03/19 08:01:19;;;;;;;4.10;1.33;;;;;;;19.32;28.45;104042.03;7313574;19;130087;-56
2022/03/19 08:03:47;;;;;;;2.97;1.42;;;;;;;19.29;28.90;104030.41;7313647;19;130609;-53
2022/03/19 08:06:14;;;;;;;3.25;1.30;;;;;;;19.27;28.76;104038.03;7313522;19;130445;-53
2022/03/19 08:08:41;;;;;;;3.60;1.25;;;;;;;19.22;28.77;104035.78;7312028;19;129336;-50
2022/03/19 08:11:09;;;;;;;4.32;1.50;;;;;;;19.19;28.95;104030.59;7313648;19;128787;-49
2022/03/19 08:13:35;;;;;;;3.97;1.38;;;;;;;19.17;28.61;104032.66;7313330;19;131167;-52
2022/03/19 08:16:02;;;;;;;3.28;1.42;;;;;;;19.15;28.65;104034.75;7312680;19;129530;-53
2022/03/19 08:18:30;;;;;;;4.20;1.38;;;;;;;19.13;28.79;104034.03;7310261;19;130207;-51
2022/03/19 08:20:58;;;;;;;4.65;1.85;;;;;;;19.10;28.85;104026.94;7311103;19;129687;-52
2022/03/19 08:23:25;;;;;;;3.63;1.45;;;;;;;19.07;28.87;104039.25;7312841;19;129629;-55
2022/03/19 08:25:52;;;;;;;3.75;1.70;;;;;;;19.05;28.77;104033.00;7312406;19;130343;-55
2022/03/19 08:28:19;;;;;;;4.68;1.55;;;;;;;19.03;29.16;104036.97;7310780;19;129426;-51
2022/03/19 08:30:45;;;;;;;5.32;1.60;;;;;;;19.01;28.78;104031.63;7310518;19;129020;-50
2022/03/19 08:33:12;;;;;;;3.47;1.50;;;;;;;18.99;29.16;104030.06;7311026;19;129836;-57
2022/03/19 08:35:39;;;;;;;4.75;1.50;;;;;;;18.96;29.18;104030.41;7312164;19;130038;-54
2022/03/19 08:40:51;;;;;;;3.90;1.67;;;;;;;18.93;29.12;104031.63;7311019;19;129108;-52
2022/03/19 08:43:18;;;;;;;11.05;2.13;;;;;;;19.02;29.12;104030.56;7312888;19;129627;-56
2022/03/19 08:45:45;;;;;;;13.75;1.90;;;;;;;19.09;29.06;104030.75;7312206;19;130536;-55
2022/03/19 08:48:13;;;;;;;6.50;1.92;;;;;;;19.12;29.05;104035.06;7310814;19;133172;-57
2022/03/19 08:50:40;;;;;;;8.07;1.85;;;;;;;19.15;28.63;104023.63;7311402;19;128973;-54
2022/03/19 08:53:06;;;;;;;5.38;1.80;;;;;;;19.19;29.00;104025.88;7311162;19;131548;-56
2022/03/19 08:55:33;;;;;;;7.40;2.00;;;;;;;19.22;28.96;104025.56;7309887;19;129505;-53
2022/03/19 08:58:00;;;;;;;6.90;1.58;;;;;;;19.27;28.54;104018.59;7311645;19;129494;-59
2022/03/19 09:00:27;;;;;;;9.95;1.65;;;;;;;19.29;28.83;104020.19;7311370;19;129088;-55
2022/03/19 09:02:55;;;;;;;5.00;1.60;;;;;;;19.31;28.60;104012.56;7312770;19;129962;-54
2022/03/19 09:05:23;;;;;;;7.90;2.30;;;;;;;19.34;28.71;104023.28;7311469;19;129575;-56
2022/03/19 09:07:50;;;;;;;12.32;2.05;;;;;;;19.37;28.88;104014.63;7311854;19;133248;-58
2022/03/19 09:10:17;;;;;;;6.10;1.88;;;;;;;19.39;28.38;104019.97;7311593;19;129390;-56
2022/03/19 09:12:44;;;;;;;7.97;1.90;;;;;;;19.41;28.91;104011.50;7310815;19;130572;-56
2022/03/19 09:15:12;;;;;;;5.22;1.55;;;;;;;19.41;28.56;104015.13;7312367;19;129932;-56
2022/03/19 09:17:40;;;;;;;5.60;2.05;;;;;;;19.42;28.57;104005.75;7310970;19;128964;-56
2022/03/19 09:20:10;;;;;;;10.32;1.95;;;;;;;19.44;28.61;104011.16;7308770;19;131672;-58
2022/03/19 09:22:37;;;;;;;6.47;1.77;;;;;;;19.43;28.68;103998.31;7311833;19;129665;-58
2022/03/19 09:25:04;;;;;;;8.20;1.98;;;;;;;19.43;28.63;103996.38;7311776;19;130823;-57
2022/03/19 09:27:32;;;;;;;6.72;1.65;;;;;;;19.43;28.75;104001.09;7309108;19;128750;-58
2022/03/19 09:29:59;;;;;;;7.40;1.98;;;;;;;19.43;28.69;103989.97;7310322;19;130182;-59
2022/03/19 09:32:25;;;;;;;8.57;2.17;;;;;;;19.42;28.59;103997.41;7308953;19;129676;-58
2022/03/19 09:34:53;;;;;;;7.05;1.70;;;;;;;19.41;28.40;103992.06;7311388;19;130034;-57
2022/03/19 09:37:20;;;;;;;5.93;1.70;;;;;;;19.41;28.52;103983.72;7311530;19;128868;-58
2022/03/19 09:39:49;;;;;;;7.50;1.92;;;;;;;19.40;28.75;103984.78;7309629;19;128997;-58
2022/03/19 09:42:16;;;;;;;4.82;1.80;;;;;;;19.40;28.96;103982.00;7311208;19;129669;-57
2022/03/19 09:44:45;;;;;;;8.35;1.98;;;;;;;19.37;28.87;103977.66;7310532;19;130498;-58
2022/03/19 09:47:13;;;;;;;8.45;1.80;;;;;;;19.36;28.49;103982.34;7310838;19;129981;-57
2022/03/19 09:49:40;;;;;;;6.60;1.40;;;;;;;19.34;28.73;103964.13;7310322;19;130819;-57
2022/03/19 09:52:08;;;;;;;5.05;1.73;;;;;;;19.33;28.65;103970.72;7309120;19;129590;-58
2022/03/19 09:54:35;;;;;;;5.05;1.88;;;;;;;19.31;28.78;103962.59;7308184;19;130389;-56
2022/03/19 09:57:02;;;;;;;5.20;1.42;;;;;;;19.29;28.52;103959.13;7308903;19;128885;-57
2022/03/19 09:59:29;;;;;;;5.05;1.45;;;;;;;19.28;28.76;103956.50;7308714;19;129616;-57
2022/03/19 10:01:56;;;;;;;6.43;1.80;;;;;;;19.25;28.72;103954.97;7309574;19;130607;-57
2022/03/19 10:04:23;;;;;;;5.88;1.95;;;;;;;19.25;28.84;103952.19;7309771;19;129751;-58
2022/03/19 10:09:46;;;;;;;8.82;1.85;;;;;;;19.20;28.43;103949.06;7308198;19;129038;-56
2022/03/19 10:12:19;;;;;;;6.50;1.80;;;;;;;19.17;28.45;103950.25;7309960;19;129640;-56
2022/03/19 10:14:54;;;;;;;4.88;2.00;;;;;;;19.16;28.43;103942.13;7310123;19;129638;-57
2022/03/19 10:17:31;;;;;;;7.25;2.50;;;;;;;19.13;28.32;103943.34;7309511;19;129241;-58
2022/03/19 10:20:02;;;;;;;6.22;2.10;;;;;;;19.12;28.40;103929.63;7304861;19;130308;-57
2022/03/19 10:22:30;;;;;;;5.93;2.00;;;;;;;19.08;28.76;103921.66;7308981;19;130307;-58
2022/03/19 10:25:02;;;;;;;6.18;2.30;;;;;;;19.08;28.57;103926.34;7307893;19;130429;-55
2022/03/19 10:27:38;;;;;;;5.63;2.38;;;;;;;19.05;28.49;103916.47;7307578;19;129328;-57
2022/03/19 10:30:16;;;;;;;5.10;1.70;;;;;;;19.05;28.35;103910.91;7308460;19;128979;-56
2022/03/19 10:32:49;;;;;;;4.43;1.98;;;;;;;19.04;28.45;103914.72;7305630;19;133153;-59
2022/03/19 10:35:27;;;;;;;5.47;2.00;;;;;;;19.03;28.51;103907.44;7308862;19;130050;-57
2022/03/19 10:37:56;;;;;;;10.70;2.20;;;;;;;19.01;28.44;103898.44;7307726;19;129621;-55
2022/03/19 10:40:36;;;;;;;8.05;2.10;;;;;;;19.00;28.58;103905.03;7308596;19;130106;-58
2022/03/19 10:43:06;;;;;;;9.10;2.30;;;;;;;18.98;28.61;103895.16;7313005;19;129679;-56
2022/03/19 10:45:34;;;;;;;4.97;2.05;;;;;;;18.97;28.21;103894.25;7314230;19;130732;-52
2022/03/19 10:48:04;;;;;;;9.77;2.15;;;;;;;18.95;28.15;103885.28;7313547;19;129632;-56
2022/03/19 10:50:31;;;;;;;5.45;1.70;;;;;;;18.92;28.39;103880.06;7311580;19;131312;-54
2022/03/19 10:52:59;;;;;;;5.10;1.75;;;;;;;18.90;28.29;103880.22;7313008;19;133176;-55
2022/03/19 10:55:26;;;;;;;9.23;1.88;;;;;;;18.88;27.99;103868.47;7314679;19;130234;-56
2022/03/19 10:57:53;;;;;;;8.55;2.05;;;;;;;18.87;28.01;103868.63;7311896;19;130025;-57
2022/03/19 11:00:22;;;;;;;7.43;1.70;;;;;;;18.86;28.02;103869.66;7316025;19;129047;-55
2022/03/19 11:02:49;;;;;;;8.98;2.00;;;;;;;18.85;28.21;103856.84;7315725;19;130115;-55
2022/03/19 11:05:19;;;;;;;8.85;1.98;;;;;;;18.85;27.79;103857.72;7315083;19;129393;-55
2022/03/19 11:07:47;;;;;;;12.57;2.15;;;;;;;18.84;27.78;103849.56;7316396;19;129005;-54
2022/03/19 11:10:14;;;;;;;7.90;2.08;;;;;;;18.81;27.96;103849.94;7313259;19;129410;-56
2022/03/19 11:12:50;;;;;;;9.82;2.20;;;;;;;18.81;27.59;103845.25;7314309;19;129954;-58
2022/03/19 11:15:21;;;;;;;7.85;1.80;;;;;;;18.79;27.62;103847.31;7314434;19;129426;-57
2022/03/19 11:17:53;;;;;;;10.50;1.92;;;;;;;18.79;27.68;103840.91;7315134;19;129681;-57
2022/03/19 11:20:20;;;;;;;9.20;1.48;;;;;;;18.78;27.76;103834.50;7312203;19;128888;-57
2022/03/19 11:22:55;;;;;;;7.00;1.80;;;;;;;18.77;27.31;103827.22;7314798;19;129113;-58
2022/03/19 11:25:31;;;;;;;6.07;1.75;;;;;;;18.77;27.21;103819.78;7315586;19;130056;-54
2022/03/19 11:28:00;;;;;;;10.77;2.22;;;;;;;18.76;27.41;103831.06;7314797;19;128875;-56
2022/03/19 11:30:34;;;;;;;5.97;1.90;;;;;;;18.75;27.75;103830.16;7315110;19;130850;-57
2022/03/19 11:33:20;;;;;;;8.70;1.67;;;;;;;18.76;27.39;103819.97;7313795;19;131084;-55
2022/03/19 11:35:59;;;;;;;6.55;2.00;;;;;;;18.74;27.26;103822.88;7310760;19;129989;-56
2022/03/19 11:38:27;;;;;;;6.45;1.75;;;;;;;18.74;27.19;103817.34;7310959;19;129397;-54